Washington — WDG6858 — position and weather

sailwx.info

Track history (hours):
 
Tides and Currents Weather Stations Pressure Air Temp Water Temp Dewpoint Dewpoint Depression Visibility Wind Speed Wind Dir Waves Ship Positions

Washington

Owner: Whitetail Vessel Company LLC, Paducah, KY. More information available from US FCC via Universal Licensing System and Coast Guard Vessel Documentation Center.

Last reported at 2017-Sep-18 15:05 UTC. Time now 2017-Sep-22 17:24 UTC.
Position N 38°52' W 090°09'.

Type: Towing. MMSI: 367561430.

Date/timePositionNaut miles runAvg speedWind from/ knotsBaromVisibWave heightAir tempDewpointWater temp
2017-Sep-18 15:05N 38°52' W 090°09'1 2.8
2017-Sep-18 14:48N 38°53' W 090°10'1 3.6
2017-Sep-18 14:25N 38°53' W 090°12'2 3.8
2017-Sep-18 13:49N 38°55' W 090°14'1 3.5
2017-Sep-18 13:29N 38°55' W 090°15'2 3.7
2017-Sep-18 13:00N 38°55' W 090°18'2 3.5
2017-Sep-18 12:30N 38°56' W 090°20'2 3.7
2017-Sep-18 12:00N 38°57' W 090°22'2 3.7
2017-Sep-18 11:30N 38°58' W 090°24'2 3.6
2017-Sep-18 11:00N 38°58' W 090°26'2 3.6
2017-Sep-18 10:30N 38°57' W 090°28'2 3.8
2017-Sep-18 10:00N 38°56' W 090°30'3 3.9
2017-Sep-18 09:18N 38°53' W 090°32'1 3.7
2017-Sep-18 08:56N 38°52' W 090°33'  
2017-Sep-10 07:16N 41°10' W 091°01'1 4.2
2017-Sep-10 06:58N 41°10' W 090°60'3 4.3
2017-Sep-10 06:20N 41°07' W 090°58'1 4.4
2017-Sep-10 06:00N 41°06' W 090°57'2 4.4
2017-Sep-10 05:29N 41°04' W 090°57'1 3.0
2017-Sep-10 05:00N 41°03' W 090°56'1 1.2
2017-Sep-10 04:30N 41°02' W 090°56'2 4.6
2017-Sep-10 04:00N 40°60' W 090°57'2 4.1
2017-Sep-10 03:30N 40°58' W 090°57'0 0.1
2017-Sep-10 03:00N 40°58' W 090°57'2 3.3
2017-Sep-10 02:30N 40°56' W 090°58'2 3.9
2017-Sep-10 02:00N 40°55' W 090°60'2 4.1
2017-Sep-10 01:30N 40°53' W 091°01'1 1.7
2017-Sep-10 01:00N 40°52' W 091°02'1 1.2
2017-Sep-10 00:29N 40°52' W 091°03'0 0.0
2017-Sep-10 00:00N 40°52' W 091°03'0 0.0
2017-Sep-09 23:30N 40°52' W 091°03'0 0.0
2017-Sep-09 23:00N 40°52' W 091°03'1 2.4
2017-Sep-09 22:30N 40°51' W 091°03'2 4.2
2017-Sep-09 22:00N 40°50' W 091°05'2 4.4
2017-Sep-09 21:30N 40°47' W 091°06'  
Track history (hours):
 
Tides and Currents Weather Stations Pressure Air Temp Water Temp Dewpoint Dewpoint Depression Visibility Wind Speed Wind Dir Waves Ship Positions

Washington

Owner: Whitetail Vessel Company LLC, Paducah, KY. More information available from US FCC via Universal Licensing System and Coast Guard Vessel Documentation Center.

Last reported at 2017-Sep-18 15:05 UTC. Time now 2017-Sep-22 17:24 UTC.
Position N 38°52' W 090°09'.

Type: Towing. MMSI: 367561430.

Date/timePositionNaut miles runAvg speedWind from/ knotsBaromVisibWave heightAir tempDewpointWater temp
2017-Sep-18 15:05N 38°52' W 090°09'1 2.8
2017-Sep-18 14:48N 38°53' W 090°10'1 3.6
2017-Sep-18 14:25N 38°53' W 090°12'2 3.8
2017-Sep-18 13:49N 38°55' W 090°14'1 3.5
2017-Sep-18 13:29N 38°55' W 090°15'2 3.7
2017-Sep-18 13:00N 38°55' W 090°18'2 3.5
2017-Sep-18 12:30N 38°56' W 090°20'2 3.7
2017-Sep-18 12:00N 38°57' W 090°22'2 3.7
2017-Sep-18 11:30N 38°58' W 090°24'2 3.6
2017-Sep-18 11:00N 38°58' W 090°26'2 3.6
2017-Sep-18 10:30N 38°57' W 090°28'2 3.8
2017-Sep-18 10:00N 38°56' W 090°30'3 3.9
2017-Sep-18 09:18N 38°53' W 090°32'1 3.7
2017-Sep-18 08:56N 38°52' W 090°33'  
2017-Sep-10 07:16N 41°10' W 091°01'1 4.2
2017-Sep-10 06:58N 41°10' W 090°60'3 4.3
2017-Sep-10 06:20N 41°07' W 090°58'1 4.4
2017-Sep-10 06:00N 41°06' W 090°57'2 4.4
2017-Sep-10 05:29N 41°04' W 090°57'1 3.0
2017-Sep-10 05:00N 41°03' W 090°56'1 1.2
2017-Sep-10 04:30N 41°02' W 090°56'2 4.6
2017-Sep-10 04:00N 40°60' W 090°57'2 4.1
2017-Sep-10 03:30N 40°58' W 090°57'0 0.1
2017-Sep-10 03:00N 40°58' W 090°57'2 3.3
2017-Sep-10 02:30N 40°56' W 090°58'2 3.9
2017-Sep-10 02:00N 40°55' W 090°60'2 4.1
2017-Sep-10 01:30N 40°53' W 091°01'1 1.7
2017-Sep-10 01:00N 40°52' W 091°02'1 1.2
2017-Sep-10 00:29N 40°52' W 091°03'0 0.0
2017-Sep-10 00:00N 40°52' W 091°03'0 0.0
2017-Sep-09 23:30N 40°52' W 091°03'0 0.0
2017-Sep-09 23:00N 40°52' W 091°03'1 2.4
2017-Sep-09 22:30N 40°51' W 091°03'2 4.2
2017-Sep-09 22:00N 40°50' W 091°05'2 4.4
2017-Sep-09 21:30N 40°47' W 091°06'  

Dump ship's entire track history